sensor_id;sensor_type;location;lat;lon;timestamp;P1;durP1;ratioP1;P2;durP2;ratioP2
57651;SDS011;43480;53.116;6.734;2023-04-15T00:00:35;21.35;;;8.20;;
57651;SDS011;43480;53.116;6.734;2023-04-15T00:03:01;13.93;;;7.75;;
57651;SDS011;43480;53.116;6.734;2023-04-15T00:05:29;15.40;;;7.88;;
57651;SDS011;43480;53.116;6.734;2023-04-15T00:07:55;14.68;;;7.90;;
57651;SDS011;43480;53.116;6.734;2023-04-15T00:10:23;14.90;;;8.05;;
57651;SDS011;43480;53.116;6.734;2023-04-15T00:12:49;11.20;;;7.60;;
57651;SDS011;43480;53.116;6.734;2023-04-15T00:15:15;16.83;;;9.02;;
57651;SDS011;43480;53.116;6.734;2023-04-15T00:17:41;14.00;;;8.02;;
57651;SDS011;43480;53.116;6.734;2023-04-15T00:20:07;13.25;;;8.63;;
57651;SDS011;43480;53.116;6.734;2023-04-15T00:22:33;14.57;;;8.48;;
57651;SDS011;43480;53.116;6.734;2023-04-15T00:24:58;11.73;;;8.05;;
57651;SDS011;43480;53.116;6.734;2023-04-15T00:27:24;13.35;;;8.05;;
57651;SDS011;43480;53.116;6.734;2023-04-15T00:29:50;13.15;;;8.52;;
57651;SDS011;43480;53.116;6.734;2023-04-15T00:32:15;13.60;;;8.18;;
57651;SDS011;43480;53.116;6.734;2023-04-15T00:34:41;16.50;;;9.27;;
57651;SDS011;43480;53.116;6.734;2023-04-15T00:37:08;14.05;;;7.75;;
57651;SDS011;43480;53.116;6.734;2023-04-15T00:39:34;14.05;;;8.00;;
57651;SDS011;43480;53.116;6.734;2023-04-15T00:41:59;12.05;;;8.65;;
57651;SDS011;43480;53.116;6.734;2023-04-15T00:44:26;11.75;;;7.95;;
57651;SDS011;43480;53.116;6.734;2023-04-15T00:46:52;11.88;;;7.65;;
57651;SDS011;43480;53.116;6.734;2023-04-15T00:49:18;12.65;;;7.68;;
57651;SDS011;43480;53.116;6.734;2023-04-15T00:51:44;16.70;;;8.40;;
57651;SDS011;43480;53.116;6.734;2023-04-15T00:54:09;14.93;;;8.32;;
57651;SDS011;43480;53.116;6.734;2023-04-15T00:56:36;12.52;;;7.82;;
57651;SDS011;43480;53.116;6.734;2023-04-15T00:59:03;15.43;;;8.85;;
57651;SDS011;43480;53.116;6.734;2023-04-15T01:01:30;13.65;;;8.05;;
57651;SDS011;43480;53.116;6.734;2023-04-15T01:03:56;17.58;;;9.70;;
57651;SDS011;43480;53.116;6.734;2023-04-15T01:06:22;17.02;;;9.38;;
57651;SDS011;43480;53.116;6.734;2023-04-15T01:08:48;17.75;;;9.88;;
57651;SDS011;43480;53.116;6.734;2023-04-15T01:11:15;19.10;;;11.82;;
57651;SDS011;43480;53.116;6.734;2023-04-15T01:13:41;17.10;;;10.52;;
57651;SDS011;43480;53.116;6.734;2023-04-15T01:16:07;16.38;;;11.07;;
57651;SDS011;43480;53.116;6.734;2023-04-15T01:18:36;15.30;;;11.60;;
57651;SDS011;43480;53.116;6.734;2023-04-15T01:21:03;18.42;;;10.52;;
57651;SDS011;43480;53.116;6.734;2023-04-15T01:23:30;17.02;;;10.70;;
57651;SDS011;43480;53.116;6.734;2023-04-15T01:25:56;15.48;;;9.45;;
57651;SDS011;43480;53.116;6.734;2023-04-15T01:28:23;20.05;;;9.77;;
57651;SDS011;43480;53.116;6.734;2023-04-15T01:30:49;15.23;;;10.23;;
57651;SDS011;43480;53.116;6.734;2023-04-15T01:33:29;16.15;;;9.90;;
57651;SDS011;43480;53.116;6.734;2023-04-15T01:35:55;14.93;;;10.55;;
57651;SDS011;43480;53.116;6.734;2023-04-15T01:38:21;18.27;;;11.02;;
57651;SDS011;43480;53.116;6.734;2023-04-15T01:40:46;17.55;;;11.00;;
57651;SDS011;43480;53.116;6.734;2023-04-15T01:43:12;15.90;;;10.48;;
57651;SDS011;43480;53.116;6.734;2023-04-15T01:45:39;14.38;;;8.88;;
57651;SDS011;43480;53.116;6.734;2023-04-15T01:48:05;13.20;;;9.25;;
57651;SDS011;43480;53.116;6.734;2023-04-15T01:50:31;13.73;;;8.88;;
57651;SDS011;43480;53.116;6.734;2023-04-15T01:52:56;13.50;;;8.90;;
57651;SDS011;43480;53.116;6.734;2023-04-15T01:55:22;13.73;;;9.13;;
57651;SDS011;43480;53.116;6.734;2023-04-15T01:57:48;14.02;;;8.30;;
57651;SDS011;43480;53.116;6.734;2023-04-15T02:00:13;17.10;;;9.45;;
57651;SDS011;43480;53.116;6.734;2023-04-15T02:02:40;16.05;;;9.82;;
57651;SDS011;43480;53.116;6.734;2023-04-15T02:05:06;18.73;;;11.82;;
57651;SDS011;43480;53.116;6.734;2023-04-15T02:07:32;14.48;;;10.50;;
57651;SDS011;43480;53.116;6.734;2023-04-15T02:09:57;15.77;;;10.10;;
57651;SDS011;43480;53.116;6.734;2023-04-15T02:12:23;15.05;;;9.60;;
57651;SDS011;43480;53.116;6.734;2023-04-15T02:14:49;16.33;;;10.38;;
57651;SDS011;43480;53.116;6.734;2023-04-15T02:17:15;13.40;;;9.43;;
57651;SDS011;43480;53.116;6.734;2023-04-15T02:19:41;14.70;;;10.15;;
57651;SDS011;43480;53.116;6.734;2023-04-15T02:22:07;15.90;;;10.85;;
57651;SDS011;43480;53.116;6.734;2023-04-15T02:24:33;20.98;;;12.00;;
57651;SDS011;43480;53.116;6.734;2023-04-15T02:26:59;18.10;;;12.18;;
57651;SDS011;43480;53.116;6.734;2023-04-15T02:29:25;19.05;;;11.20;;
57651;SDS011;43480;53.116;6.734;2023-04-15T02:31:51;19.73;;;12.68;;
57651;SDS011;43480;53.116;6.734;2023-04-15T02:34:17;17.35;;;11.48;;
57651;SDS011;43480;53.116;6.734;2023-04-15T02:36:42;17.85;;;12.65;;
57651;SDS011;43480;53.116;6.734;2023-04-15T02:39:08;19.25;;;12.70;;
57651;SDS011;43480;53.116;6.734;2023-04-15T02:41:33;20.90;;;13.85;;
57651;SDS011;43480;53.116;6.734;2023-04-15T02:43:59;22.02;;;13.70;;
57651;SDS011;43480;53.116;6.734;2023-04-15T02:46:25;23.08;;;14.50;;
57651;SDS011;43480;53.116;6.734;2023-04-15T02:48:51;23.73;;;14.07;;
57651;SDS011;43480;53.116;6.734;2023-04-15T02:51:21;18.85;;;12.93;;
57651;SDS011;43480;53.116;6.734;2023-04-15T02:53:47;26.95;;;14.93;;
57651;SDS011;43480;53.116;6.734;2023-04-15T02:56:13;20.02;;;14.20;;
57651;SDS011;43480;53.116;6.734;2023-04-15T02:58:41;22.08;;;15.30;;
57651;SDS011;43480;53.116;6.734;2023-04-15T03:01:08;21.05;;;14.77;;
57651;SDS011;43480;53.116;6.734;2023-04-15T03:03:34;23.65;;;15.07;;
57651;SDS011;43480;53.116;6.734;2023-04-15T03:06:00;25.30;;;16.30;;
57651;SDS011;43480;53.116;6.734;2023-04-15T03:08:25;21.45;;;15.07;;
57651;SDS011;43480;53.116;6.734;2023-04-15T03:10:51;23.42;;;15.00;;
57651;SDS011;43480;53.116;6.734;2023-04-15T03:13:17;21.38;;;14.98;;
57651;SDS011;43480;53.116;6.734;2023-04-15T03:15:47;23.90;;;14.55;;
57651;SDS011;43480;53.116;6.734;2023-04-15T03:18:13;24.73;;;15.20;;
57651;SDS011;43480;53.116;6.734;2023-04-15T03:20:39;22.58;;;14.75;;
57651;SDS011;43480;53.116;6.734;2023-04-15T03:23:05;24.60;;;16.27;;
57651;SDS011;43480;53.116;6.734;2023-04-15T03:25:30;21.77;;;14.98;;
57651;SDS011;43480;53.116;6.734;2023-04-15T03:27:56;24.42;;;16.70;;
57651;SDS011;43480;53.116;6.734;2023-04-15T03:30:22;26.42;;;16.63;;
57651;SDS011;43480;53.116;6.734;2023-04-15T03:32:47;24.40;;;15.13;;
57651;SDS011;43480;53.116;6.734;2023-04-15T03:35:13;23.83;;;16.33;;
57651;SDS011;43480;53.116;6.734;2023-04-15T03:37:39;24.75;;;15.20;;
57651;SDS011;43480;53.116;6.734;2023-04-15T03:40:05;24.88;;;15.43;;
57651;SDS011;43480;53.116;6.734;2023-04-15T03:42:31;18.02;;;11.60;;
57651;SDS011;43480;53.116;6.734;2023-04-15T03:44:58;17.65;;;11.60;;
57651;SDS011;43480;53.116;6.734;2023-04-15T03:47:23;19.20;;;12.23;;
57651;SDS011;43480;53.116;6.734;2023-04-15T03:49:49;19.50;;;12.23;;
57651;SDS011;43480;53.116;6.734;2023-04-15T03:52:15;17.77;;;11.77;;
57651;SDS011;43480;53.116;6.734;2023-04-15T03:54:40;18.23;;;11.65;;
57651;SDS011;43480;53.116;6.734;2023-04-15T03:57:06;21.80;;;13.38;;
57651;SDS011;43480;53.116;6.734;2023-04-15T03:59:31;21.58;;;14.05;;
57651;SDS011;43480;53.116;6.734;2023-04-15T04:01:57;23.52;;;15.32;;
57651;SDS011;43480;53.116;6.734;2023-04-15T04:04:22;21.40;;;14.52;;
57651;SDS011;43480;53.116;6.734;2023-04-15T04:06:48;21.98;;;14.45;;
57651;SDS011;43480;53.116;6.734;2023-04-15T04:09:14;25.00;;;14.55;;
57651;SDS011;43480;53.116;6.734;2023-04-15T04:11:39;24.75;;;16.20;;
57651;SDS011;43480;53.116;6.734;2023-04-15T04:14:05;31.63;;;17.38;;
57651;SDS011;43480;53.116;6.734;2023-04-15T04:16:31;26.45;;;16.55;;
57651;SDS011;43480;53.116;6.734;2023-04-15T04:18:56;30.20;;;17.80;;
57651;SDS011;43480;53.116;6.734;2023-04-15T04:21:22;29.27;;;17.45;;
57651;SDS011;43480;53.116;6.734;2023-04-15T04:23:48;30.40;;;17.80;;
57651;SDS011;43480;53.116;6.734;2023-04-15T04:26:13;27.17;;;16.45;;
57651;SDS011;43480;53.116;6.734;2023-04-15T04:28:39;31.95;;;17.90;;
57651;SDS011;43480;53.116;6.734;2023-04-15T04:31:05;29.10;;;18.10;;
57651;SDS011;43480;53.116;6.734;2023-04-15T04:33:31;27.27;;;16.83;;
57651;SDS011;43480;53.116;6.734;2023-04-15T04:35:57;30.30;;;18.40;;
57651;SDS011;43480;53.116;6.734;2023-04-15T04:38:23;25.35;;;16.08;;
57651;SDS011;43480;53.116;6.734;2023-04-15T04:40:49;28.60;;;17.77;;
57651;SDS011;43480;53.116;6.734;2023-04-15T04:43:14;32.63;;;18.15;;
57651;SDS011;43480;53.116;6.734;2023-04-15T04:45:40;27.92;;;17.50;;
57651;SDS011;43480;53.116;6.734;2023-04-15T04:48:06;30.40;;;18.30;;
57651;SDS011;43480;53.116;6.734;2023-04-15T04:50:34;27.90;;;17.05;;
57651;SDS011;43480;53.116;6.734;2023-04-15T04:53:00;31.20;;;19.65;;
57651;SDS011;43480;53.116;6.734;2023-04-15T04:55:26;28.10;;;18.30;;
57651;SDS011;43480;53.116;6.734;2023-04-15T04:57:52;33.78;;;21.00;;
57651;SDS011;43480;53.116;6.734;2023-04-15T05:00:18;32.97;;;20.58;;
57651;SDS011;43480;53.116;6.734;2023-04-15T05:02:44;32.35;;;19.25;;
57651;SDS011;43480;53.116;6.734;2023-04-15T05:05:10;32.63;;;20.15;;
57651;SDS011;43480;53.116;6.734;2023-04-15T05:07:36;31.40;;;20.30;;
57651;SDS011;43480;53.116;6.734;2023-04-15T05:10:02;34.17;;;20.25;;
57651;SDS011;43480;53.116;6.734;2023-04-15T05:12:28;32.42;;;18.65;;
57651;SDS011;43480;53.116;6.734;2023-04-15T05:14:54;32.60;;;18.80;;
57651;SDS011;43480;53.116;6.734;2023-04-15T05:17:19;34.15;;;19.05;;
57651;SDS011;43480;53.116;6.734;2023-04-15T05:19:45;30.30;;;18.65;;
57651;SDS011;43480;53.116;6.734;2023-04-15T05:22:11;30.60;;;18.80;;
57651;SDS011;43480;53.116;6.734;2023-04-15T05:24:37;30.58;;;18.60;;
57651;SDS011;43480;53.116;6.734;2023-04-15T05:27:02;28.73;;;19.13;;
57651;SDS011;43480;53.116;6.734;2023-04-15T05:29:28;26.95;;;18.08;;
57651;SDS011;43480;53.116;6.734;2023-04-15T05:31:54;28.88;;;19.27;;
57651;SDS011;43480;53.116;6.734;2023-04-15T05:34:20;29.15;;;18.98;;
57651;SDS011;43480;53.116;6.734;2023-04-15T05:36:46;28.70;;;18.27;;
57651;SDS011;43480;53.116;6.734;2023-04-15T05:39:12;26.23;;;17.65;;
57651;SDS011;43480;53.116;6.734;2023-04-15T05:41:38;30.92;;;18.80;;
57651;SDS011;43480;53.116;6.734;2023-04-15T05:44:03;29.75;;;18.88;;
57651;SDS011;43480;53.116;6.734;2023-04-15T05:46:30;31.45;;;18.33;;
57651;SDS011;43480;53.116;6.734;2023-04-15T05:48:55;31.58;;;19.38;;
57651;SDS011;43480;53.116;6.734;2023-04-15T05:51:21;26.85;;;18.60;;
57651;SDS011;43480;53.116;6.734;2023-04-15T05:53:47;27.25;;;18.35;;
57651;SDS011;43480;53.116;6.734;2023-04-15T05:56:12;24.17;;;17.00;;
57651;SDS011;43480;53.116;6.734;2023-04-15T05:58:38;24.80;;;17.08;;
57651;SDS011;43480;53.116;6.734;2023-04-15T06:01:03;31.48;;;18.25;;
57651;SDS011;43480;53.116;6.734;2023-04-15T06:03:29;25.35;;;17.15;;
57651;SDS011;43480;53.116;6.734;2023-04-15T06:05:55;29.13;;;18.00;;
57651;SDS011;43480;53.116;6.734;2023-04-15T06:08:21;25.33;;;17.17;;
57651;SDS011;43480;53.116;6.734;2023-04-15T06:10:46;27.65;;;17.25;;
57651;SDS011;43480;53.116;6.734;2023-04-15T06:13:12;23.17;;;15.25;;
57651;SDS011;43480;53.116;6.734;2023-04-15T06:15:38;23.25;;;15.43;;
57651;SDS011;43480;53.116;6.734;2023-04-15T06:18:03;23.98;;;14.77;;
57651;SDS011;43480;53.116;6.734;2023-04-15T06:20:29;25.13;;;15.10;;
57651;SDS011;43480;53.116;6.734;2023-04-15T06:22:55;22.92;;;14.88;;
57651;SDS011;43480;53.116;6.734;2023-04-15T06:25:21;22.80;;;14.88;;
57651;SDS011;43480;53.116;6.734;2023-04-15T06:27:47;24.38;;;14.75;;
57651;SDS011;43480;53.116;6.734;2023-04-15T06:30:12;20.92;;;13.38;;
57651;SDS011;43480;53.116;6.734;2023-04-15T06:32:38;23.48;;;14.65;;
57651;SDS011;43480;53.116;6.734;2023-04-15T06:35:04;21.45;;;13.65;;
57651;SDS011;43480;53.116;6.734;2023-04-15T06:37:30;21.00;;;13.88;;
57651;SDS011;43480;53.116;6.734;2023-04-15T06:39:56;19.55;;;13.05;;
57651;SDS011;43480;53.116;6.734;2023-04-15T06:42:22;22.77;;;14.20;;
57651;SDS011;43480;53.116;6.734;2023-04-15T06:44:48;18.88;;;13.13;;
57651;SDS011;43480;53.116;6.734;2023-04-15T06:47:14;21.38;;;12.88;;
57651;SDS011;43480;53.116;6.734;2023-04-15T06:49:39;19.88;;;13.05;;
57651;SDS011;43480;53.116;6.734;2023-04-15T06:52:07;21.83;;;12.77;;
57651;SDS011;43480;53.116;6.734;2023-04-15T06:54:32;23.20;;;13.68;;
57651;SDS011;43480;53.116;6.734;2023-04-15T06:56:59;17.80;;;12.27;;
57651;SDS011;43480;53.116;6.734;2023-04-15T06:59:24;18.15;;;12.05;;
57651;SDS011;43480;53.116;6.734;2023-04-15T07:01:51;19.33;;;12.05;;
57651;SDS011;43480;53.116;6.734;2023-04-15T07:04:17;21.25;;;12.68;;
57651;SDS011;43480;53.116;6.734;2023-04-15T07:06:42;19.50;;;13.25;;
57651;SDS011;43480;53.116;6.734;2023-04-15T07:09:08;18.30;;;10.82;;
57651;SDS011;43480;53.116;6.734;2023-04-15T07:11:34;17.50;;;11.70;;
57651;SDS011;43480;53.116;6.734;2023-04-15T07:14:00;17.40;;;12.23;;
57651;SDS011;43480;53.116;6.734;2023-04-15T07:16:26;18.48;;;11.32;;
57651;SDS011;43480;53.116;6.734;2023-04-15T07:18:52;17.40;;;12.57;;
57651;SDS011;43480;53.116;6.734;2023-04-15T07:21:17;16.88;;;10.68;;
57651;SDS011;43480;53.116;6.734;2023-04-15T07:23:43;20.15;;;10.68;;
57651;SDS011;43480;53.116;6.734;2023-04-15T07:26:08;16.30;;;10.63;;
57651;SDS011;43480;53.116;6.734;2023-04-15T07:28:35;18.42;;;10.02;;
57651;SDS011;43480;53.116;6.734;2023-04-15T07:31:00;13.05;;;8.77;;
57651;SDS011;43480;53.116;6.734;2023-04-15T07:33:26;15.20;;;9.05;;
57651;SDS011;43480;53.116;6.734;2023-04-15T07:35:52;14.77;;;8.80;;
57651;SDS011;43480;53.116;6.734;2023-04-15T07:38:17;13.82;;;8.63;;
57651;SDS011;43480;53.116;6.734;2023-04-15T07:40:43;10.98;;;8.32;;
57651;SDS011;43480;53.116;6.734;2023-04-15T07:43:08;10.95;;;8.18;;
57651;SDS011;43480;53.116;6.734;2023-04-15T07:45:34;14.25;;;7.72;;
57651;SDS011;43480;53.116;6.734;2023-04-15T07:48:03;12.15;;;8.00;;
57651;SDS011;43480;53.116;6.734;2023-04-15T07:50:30;12.73;;;7.95;;
57651;SDS011;43480;53.116;6.734;2023-04-15T07:52:56;13.40;;;7.95;;
57651;SDS011;43480;53.116;6.734;2023-04-15T07:55:22;13.00;;;8.68;;
57651;SDS011;43480;53.116;6.734;2023-04-15T07:57:48;12.50;;;7.32;;
57651;SDS011;43480;53.116;6.734;2023-04-15T08:00:14;10.88;;;6.85;;
57651;SDS011;43480;53.116;6.734;2023-04-15T08:02:40;11.30;;;7.05;;
57651;SDS011;43480;53.116;6.734;2023-04-15T08:05:07;11.73;;;7.32;;
57651;SDS011;43480;53.116;6.734;2023-04-15T08:07:35;11.45;;;7.00;;
57651;SDS011;43480;53.116;6.734;2023-04-15T08:10:01;9.32;;;6.35;;
57651;SDS011;43480;53.116;6.734;2023-04-15T08:12:27;10.07;;;5.72;;
57651;SDS011;43480;53.116;6.734;2023-04-15T08:14:54;8.73;;;5.60;;
57651;SDS011;43480;53.116;6.734;2023-04-15T08:17:20;8.68;;;4.93;;
57651;SDS011;43480;53.116;6.734;2023-04-15T08:19:45;8.50;;;5.00;;
57651;SDS011;43480;53.116;6.734;2023-04-15T08:22:12;7.88;;;5.28;;
57651;SDS011;43480;53.116;6.734;2023-04-15T08:24:38;9.85;;;5.43;;
57651;SDS011;43480;53.116;6.734;2023-04-15T08:27:04;12.48;;;5.97;;
57651;SDS011;43480;53.116;6.734;2023-04-15T08:29:30;9.35;;;5.20;;
57651;SDS011;43480;53.116;6.734;2023-04-15T08:31:58;8.95;;;4.88;;
57651;SDS011;43480;53.116;6.734;2023-04-15T08:34:24;9.00;;;5.15;;
57651;SDS011;43480;53.116;6.734;2023-04-15T08:36:50;9.68;;;5.05;;
57651;SDS011;43480;53.116;6.734;2023-04-15T08:39:16;9.65;;;5.93;;
57651;SDS011;43480;53.116;6.734;2023-04-15T08:41:45;10.32;;;5.55;;
57651;SDS011;43480;53.116;6.734;2023-04-15T08:44:15;8.90;;;5.45;;
57651;SDS011;43480;53.116;6.734;2023-04-15T08:46:42;8.52;;;5.57;;
57651;SDS011;43480;53.116;6.734;2023-04-15T08:49:11;9.50;;;4.97;;
57651;SDS011;43480;53.116;6.734;2023-04-15T08:51:40;7.13;;;4.53;;
57651;SDS011;43480;53.116;6.734;2023-04-15T08:54:07;8.48;;;3.92;;
57651;SDS011;43480;53.116;6.734;2023-04-15T08:56:33;6.53;;;3.75;;
57651;SDS011;43480;53.116;6.734;2023-04-15T08:58:59;8.50;;;3.90;;
57651;SDS011;43480;53.116;6.734;2023-04-15T09:01:26;7.43;;;3.92;;
57651;SDS011;43480;53.116;6.734;2023-04-15T09:03:52;7.57;;;3.42;;
57651;SDS011;43480;53.116;6.734;2023-04-15T09:06:19;5.78;;;3.30;;
57651;SDS011;43480;53.116;6.734;2023-04-15T09:08:46;5.97;;;3.05;;
57651;SDS011;43480;53.116;6.734;2023-04-15T09:11:12;5.70;;;2.55;;
57651;SDS011;43480;53.116;6.734;2023-04-15T09:13:38;4.78;;;2.75;;
57651;SDS011;43480;53.116;6.734;2023-04-15T09:16:06;5.93;;;2.55;;
57651;SDS011;43480;53.116;6.734;2023-04-15T09:18:33;9.35;;;3.05;;
57651;SDS011;43480;53.116;6.734;2023-04-15T09:21:06;4.80;;;2.60;;
57651;SDS011;43480;53.116;6.734;2023-04-15T09:23:35;6.00;;;2.70;;
57651;SDS011;43480;53.116;6.734;2023-04-15T09:26:02;4.25;;;2.45;;
57651;SDS011;43480;53.116;6.734;2023-04-15T09:28:28;5.10;;;2.30;;
57651;SDS011;43480;53.116;6.734;2023-04-15T09:30:58;5.00;;;2.33;;
57651;SDS011;43480;53.116;6.734;2023-04-15T09:33:25;4.15;;;2.17;;
57651;SDS011;43480;53.116;6.734;2023-04-15T09:35:55;5.30;;;2.60;;
57651;SDS011;43480;53.116;6.734;2023-04-15T09:38:22;7.03;;;2.97;;
57651;SDS011;43480;53.116;6.734;2023-04-15T09:40:47;6.32;;;2.88;;
57651;SDS011;43480;53.116;6.734;2023-04-15T09:43:13;5.35;;;3.05;;
57651;SDS011;43480;53.116;6.734;2023-04-15T09:45:46;5.70;;;3.38;;
57651;SDS011;43480;53.116;6.734;2023-04-15T09:50:45;5.85;;;2.92;;
57651;SDS011;43480;53.116;6.734;2023-04-15T09:53:18;5.03;;;2.70;;
57651;SDS011;43480;53.116;6.734;2023-04-15T09:55:49;5.82;;;3.08;;
57651;SDS011;43480;53.116;6.734;2023-04-15T09:58:20;4.97;;;2.53;;
57651;SDS011;43480;53.116;6.734;2023-04-15T10:00:47;4.90;;;2.47;;
57651;SDS011;43480;53.116;6.734;2023-04-15T10:03:21;5.57;;;2.63;;
57651;SDS011;43480;53.116;6.734;2023-04-15T10:05:52;5.25;;;2.72;;
57651;SDS011;43480;53.116;6.734;2023-04-15T10:08:24;5.95;;;2.55;;
57651;SDS011;43480;53.116;6.734;2023-04-15T10:10:54;5.50;;;2.83;;
57651;SDS011;43480;53.116;6.734;2023-04-15T10:13:22;5.68;;;2.88;;
57651;SDS011;43480;53.116;6.734;2023-04-15T10:15:56;4.32;;;2.30;;
57651;SDS011;43480;53.116;6.734;2023-04-15T10:18:24;5.05;;;3.28;;
57651;SDS011;43480;53.116;6.734;2023-04-15T10:20:52;5.88;;;2.53;;
57651;SDS011;43480;53.116;6.734;2023-04-15T10:23:18;4.95;;;2.50;;
57651;SDS011;43480;53.116;6.734;2023-04-15T10:25:46;5.07;;;2.25;;
57651;SDS011;43480;53.116;6.734;2023-04-15T10:28:13;3.53;;;1.88;;
57651;SDS011;43480;53.116;6.734;2023-04-15T10:30:40;5.93;;;2.47;;
57651;SDS011;43480;53.116;6.734;2023-04-15T10:33:07;6.90;;;2.20;;
57651;SDS011;43480;53.116;6.734;2023-04-15T10:35:34;5.18;;;2.47;;
57651;SDS011;43480;53.116;6.734;2023-04-15T10:38:00;7.75;;;2.53;;
57651;SDS011;43480;53.116;6.734;2023-04-15T10:40:27;5.28;;;2.80;;
57651;SDS011;43480;53.116;6.734;2023-04-15T10:42:54;5.10;;;2.78;;
57651;SDS011;43480;53.116;6.734;2023-04-15T10:45:20;5.68;;;2.85;;
57651;SDS011;43480;53.116;6.734;2023-04-15T10:47:53;7.32;;;2.85;;
57651;SDS011;43480;53.116;6.734;2023-04-15T10:50:20;5.60;;;2.50;;
57651;SDS011;43480;53.116;6.734;2023-04-15T10:52:49;7.00;;;2.92;;
57651;SDS011;43480;53.116;6.734;2023-04-15T10:55:23;6.13;;;2.95;;
57651;SDS011;43480;53.116;6.734;2023-04-15T10:57:51;7.38;;;3.03;;
57651;SDS011;43480;53.116;6.734;2023-04-15T11:00:18;6.28;;;2.88;;
57651;SDS011;43480;53.116;6.734;2023-04-15T11:02:55;6.50;;;2.95;;
57651;SDS011;43480;53.116;6.734;2023-04-15T11:05:48;6.53;;;3.33;;
57651;SDS011;43480;53.116;6.734;2023-04-15T11:08:17;5.90;;;3.15;;
57651;SDS011;43480;53.116;6.734;2023-04-15T11:15:38;10.85;;;3.88;;
57651;SDS011;43480;53.116;6.734;2023-04-15T11:18:09;10.50;;;4.50;;
57651;SDS011;43480;53.116;6.734;2023-04-15T11:20:42;10.75;;;3.50;;
57651;SDS011;43480;53.116;6.734;2023-04-15T11:23:11;9.45;;;3.15;;
57651;SDS011;43480;53.116;6.734;2023-04-15T11:25:38;6.85;;;2.67;;
57651;SDS011;43480;53.116;6.734;2023-04-15T11:28:04;7.05;;;2.83;;
57651;SDS011;43480;53.116;6.734;2023-04-15T11:30:31;6.97;;;2.60;;
57651;SDS011;43480;53.116;6.734;2023-04-15T11:32:59;9.80;;;2.70;;
57651;SDS011;43480;53.116;6.734;2023-04-15T11:35:27;7.75;;;2.25;;
57651;SDS011;43480;53.116;6.734;2023-04-15T11:37:53;6.13;;;2.20;;
57651;SDS011;43480;53.116;6.734;2023-04-15T11:40:27;5.28;;;2.05;;
57651;SDS011;43480;53.116;6.734;2023-04-15T11:43:06;6.78;;;2.42;;
57651;SDS011;43480;53.116;6.734;2023-04-15T11:45:37;7.15;;;2.38;;
57651;SDS011;43480;53.116;6.734;2023-04-15T11:48:15;6.93;;;2.20;;
57651;SDS011;43480;53.116;6.734;2023-04-15T11:50:41;7.60;;;3.00;;
57651;SDS011;43480;53.116;6.734;2023-04-15T11:53:07;10.48;;;2.53;;
57651;SDS011;43480;53.116;6.734;2023-04-15T11:55:41;7.57;;;2.85;;
57651;SDS011;43480;53.116;6.734;2023-04-15T11:58:12;10.80;;;3.08;;
57651;SDS011;43480;53.116;6.734;2023-04-15T12:00:49;7.80;;;2.83;;
57651;SDS011;43480;53.116;6.734;2023-04-15T12:03:35;6.55;;;2.72;;
57651;SDS011;43480;53.116;6.734;2023-04-15T12:06:09;11.63;;;2.78;;
57651;SDS011;43480;53.116;6.734;2023-04-15T12:14:25;5.32;;;2.20;;
57651;SDS011;43480;53.116;6.734;2023-04-15T12:17:02;10.43;;;3.33;;
57651;SDS011;43480;53.116;6.734;2023-04-15T12:22:02;6.35;;;2.63;;
57651;SDS011;43480;53.116;6.734;2023-04-15T12:24:34;9.15;;;2.75;;
57651;SDS011;43480;53.116;6.734;2023-04-15T12:27:18;6.60;;;2.80;;
57651;SDS011;43480;53.116;6.734;2023-04-15T12:29:45;8.63;;;2.90;;
57651;SDS011;43480;53.116;6.734;2023-04-15T12:32:11;8.07;;;2.70;;
57651;SDS011;43480;53.116;6.734;2023-04-15T12:34:42;7.72;;;2.47;;
57651;SDS011;43480;53.116;6.734;2023-04-15T12:37:15;10.10;;;2.85;;
57651;SDS011;43480;53.116;6.734;2023-04-15T12:39:41;6.90;;;2.60;;
57651;SDS011;43480;53.116;6.734;2023-04-15T12:42:08;6.47;;;2.28;;
57651;SDS011;43480;53.116;6.734;2023-04-15T12:44:34;8.25;;;3.80;;
57651;SDS011;43480;53.116;6.734;2023-04-15T12:47:01;8.15;;;2.63;;
57651;SDS011;43480;53.116;6.734;2023-04-15T12:49:27;9.13;;;3.55;;
57651;SDS011;43480;53.116;6.734;2023-04-15T12:51:54;13.77;;;3.20;;
57651;SDS011;43480;53.116;6.734;2023-04-15T12:54:20;7.53;;;2.42;;
57651;SDS011;43480;53.116;6.734;2023-04-15T12:56:46;8.35;;;3.00;;
57651;SDS011;43480;53.116;6.734;2023-04-15T12:59:14;10.52;;;3.53;;
57651;SDS011;43480;53.116;6.734;2023-04-15T13:01:41;6.63;;;3.10;;
57651;SDS011;43480;53.116;6.734;2023-04-15T13:04:07;8.30;;;3.17;;
57651;SDS011;43480;53.116;6.734;2023-04-15T13:06:33;8.55;;;3.78;;
57651;SDS011;43480;53.116;6.734;2023-04-15T13:08:58;8.57;;;3.30;;
57651;SDS011;43480;53.116;6.734;2023-04-15T13:11:25;8.75;;;3.45;;
57651;SDS011;43480;53.116;6.734;2023-04-15T13:13:53;9.88;;;3.30;;
57651;SDS011;43480;53.116;6.734;2023-04-15T13:16:19;9.52;;;3.60;;
57651;SDS011;43480;53.116;6.734;2023-04-15T13:18:47;10.18;;;4.75;;
57651;SDS011;43480;53.116;6.734;2023-04-15T13:21:13;8.63;;;3.83;;
57651;SDS011;43480;53.116;6.734;2023-04-15T13:23:40;9.45;;;4.22;;
57651;SDS011;43480;53.116;6.734;2023-04-15T13:26:06;9.63;;;3.80;;
57651;SDS011;43480;53.116;6.734;2023-04-15T13:28:32;9.70;;;3.22;;
57651;SDS011;43480;53.116;6.734;2023-04-15T13:30:58;11.23;;;3.67;;
57651;SDS011;43480;53.116;6.734;2023-04-15T13:33:25;8.02;;;3.38;;
57651;SDS011;43480;53.116;6.734;2023-04-15T13:35:51;12.18;;;3.40;;
57651;SDS011;43480;53.116;6.734;2023-04-15T13:38:16;10.63;;;3.80;;
57651;SDS011;43480;53.116;6.734;2023-04-15T13:40:42;8.30;;;2.88;;
57651;SDS011;43480;53.116;6.734;2023-04-15T13:43:08;9.48;;;3.33;;
57651;SDS011;43480;53.116;6.734;2023-04-15T13:45:34;9.60;;;3.55;;
57651;SDS011;43480;53.116;6.734;2023-04-15T13:47:59;13.95;;;3.88;;
57651;SDS011;43480;53.116;6.734;2023-04-15T13:50:26;11.65;;;3.50;;
57651;SDS011;43480;53.116;6.734;2023-04-15T13:52:52;8.77;;;3.58;;
57651;SDS011;43480;53.116;6.734;2023-04-15T13:55:17;8.05;;;3.50;;
57651;SDS011;43480;53.116;6.734;2023-04-15T13:57:43;9.60;;;3.63;;
57651;SDS011;43480;53.116;6.734;2023-04-15T14:00:09;11.93;;;3.55;;
57651;SDS011;43480;53.116;6.734;2023-04-15T14:02:35;12.88;;;3.92;;
57651;SDS011;43480;53.116;6.734;2023-04-15T14:05:01;8.82;;;3.50;;
57651;SDS011;43480;53.116;6.734;2023-04-15T14:07:27;10.50;;;3.78;;
57651;SDS011;43480;53.116;6.734;2023-04-15T14:09:54;12.63;;;4.10;;
57651;SDS011;43480;53.116;6.734;2023-04-15T14:12:20;10.15;;;3.30;;
57651;SDS011;43480;53.116;6.734;2023-04-15T14:14:46;10.15;;;3.90;;
57651;SDS011;43480;53.116;6.734;2023-04-15T14:17:12;12.10;;;4.30;;
57651;SDS011;43480;53.116;6.734;2023-04-15T14:19:37;11.65;;;4.53;;
57651;SDS011;43480;53.116;6.734;2023-04-15T14:22:03;13.68;;;4.65;;
57651;SDS011;43480;53.116;6.734;2023-04-15T14:24:29;14.40;;;4.93;;
57651;SDS011;43480;53.116;6.734;2023-04-15T14:26:54;9.68;;;4.13;;
57651;SDS011;43480;53.116;6.734;2023-04-15T14:29:21;11.95;;;4.38;;
57651;SDS011;43480;53.116;6.734;2023-04-15T14:31:47;11.95;;;4.70;;
57651;SDS011;43480;53.116;6.734;2023-04-15T14:34:13;11.13;;;5.38;;
57651;SDS011;43480;53.116;6.734;2023-04-15T14:36:39;13.23;;;4.28;;
57651;SDS011;43480;53.116;6.734;2023-04-15T14:39:06;12.93;;;4.38;;
57651;SDS011;43480;53.116;6.734;2023-04-15T14:41:32;12.50;;;5.30;;
57651;SDS011;43480;53.116;6.734;2023-04-15T14:43:58;15.32;;;5.05;;
57651;SDS011;43480;53.116;6.734;2023-04-15T14:46:24;12.80;;;4.80;;